Time;durP1;ratioP1;P1;durP2;ratioP2;P2;SDS_P1;SDS_P2;PMS_P1;PMS_P2;Temp;Humidity;BMP_temperature;BMP_pressure;BME280_temperature;BME280_humidity;BME280_pressure;Samples;Min_cycle;Max_cycle;Signal;HPM_P1;HPM_P2
2023/10/08 00:01:03;;;;;;;5.65;4.03;;;14.90;99.90;;;;;;6251302;22;20153;-82
2023/10/08 00:03:29;;;;;;;6.40;4.50;;;14.90;99.90;;;;;;6252581;22;20157;-82
2023/10/08 00:05:55;;;;;;;5.68;4.30;;;14.90;99.90;;;;;;6251259;22;20195;-82
2023/10/08 00:08:21;;;;;;;7.15;4.57;;;14.90;99.90;;;;;;6251403;22;20180;-82
2023/10/08 00:10:47;;;;;;;8.35;4.90;;;14.90;99.90;;;;;;6252698;22;20156;-82
2023/10/08 00:13:17;;;;;;;7.65;5.10;;;14.80;99.90;;;;;;6253022;22;20497;-82
2023/10/08 00:15:53;;;;;;;7.40;4.85;;;14.80;99.90;;;;;;6252857;22;20157;-82
2023/10/08 00:18:19;;;;;;;8.70;4.47;;;14.80;99.90;;;;;;6253974;22;20173;-82
2023/10/08 00:20:54;;;;;;;6.18;4.65;;;14.70;99.90;;;;;;6252491;22;20160;-82
2023/10/08 00:23:25;;;;;;;8.52;4.90;;;14.70;99.90;;;;;;6279710;22;20133;-82
2023/10/08 00:25:51;;;;;;;5.47;4.50;;;14.70;99.90;;;;;;6251432;22;20598;-83
2023/10/08 00:28:17;;;;;;;6.82;4.72;;;14.60;99.90;;;;;;6251401;22;20184;-83
2023/10/08 00:30:43;;;;;;;7.85;4.47;;;14.60;99.90;;;;;;6252688;22;20188;-83
2023/10/08 00:33:11;;;;;;;8.40;4.88;;;14.60;99.90;;;;;;6279435;22;20149;-83
2023/10/08 00:35:38;;;;;;;9.05;4.85;;;14.60;99.90;;;;;;6253637;22;20464;-83
2023/10/08 00:38:14;;;;;;;7.85;4.70;;;14.60;99.90;;;;;;6252089;22;20153;-82
2023/10/08 00:40:40;;;;;;;5.28;4.32;;;14.60;99.90;;;;;;6252591;22;20235;-82
2023/10/08 00:43:10;;;;;;;7.70;4.60;;;14.60;99.90;;;;;;6252130;22;20211;-82
2023/10/08 00:45:43;;;;;;;5.78;4.40;;;14.60;99.90;;;;;;6252894;22;20543;-82
2023/10/08 00:48:17;;;;;;;7.80;4.75;;;14.60;99.90;;;;;;6251955;22;20204;-82
2023/10/08 00:50:47;;;;;;;8.65;4.50;;;14.60;99.90;;;;;;6251728;22;20181;-82
2023/10/08 00:53:23;;;;;;;5.90;4.53;;;14.60;99.90;;;;;;6251504;22;20161;-82
2023/10/08 00:56:04;;;;;;;9.57;4.40;;;14.60;99.90;;;;;;6251751;22;20236;-82
2023/10/08 00:58:33;;;;;;;7.28;4.78;;;14.60;99.90;;;;;;6277957;22;20176;-82
2023/10/08 01:22:33;;;;;;;6.95;5.10;;;14.50;99.90;;;;;;6232587;22;20550;-73
2023/10/08 01:25:01;;;;;;;9.00;4.57;;;14.40;99.90;;;;;;6247237;23;20150;-73
2023/10/08 01:27:34;;;;;;;6.78;4.57;;;14.40;99.90;;;;;;6221551;22;20229;-85
2023/10/08 01:30:09;;;;;;;8.15;4.32;;;14.40;99.90;;;;;;6240125;23;20178;-84
2023/10/08 01:32:36;;;;;;;9.43;4.72;;;14.40;99.90;;;;;;6240250;23;20576;-84
2023/10/08 01:35:03;;;;;;;6.95;4.78;;;14.30;99.90;;;;;;6239554;23;20198;-84
2023/10/08 01:37:33;;;;;;;8.07;4.57;;;14.30;99.90;;;;;;6216616;23;20209;-84
2023/10/08 01:40:02;;;;;;;7.15;4.90;;;14.30;99.90;;;;;;6241671;23;20229;-83
2023/10/08 01:42:28;;;;;;;5.20;4.25;;;14.40;99.90;;;;;;6240164;23;20162;-83
2023/10/08 01:44:57;;;;;;;11.07;5.55;;;14.30;99.90;;;;;;6240000;23;20184;-83
2023/10/08 01:47:25;;;;;;;7.53;4.60;;;14.30;99.90;;;;;;6240259;22;20293;-83
2023/10/08 01:49:57;;;;;;;6.47;4.60;;;14.30;99.90;;;;;;6215970;23;20181;-83
2023/10/08 01:52:23;;;;;;;6.65;4.70;;;14.30;99.90;;;;;;6215819;23;20155;-83
2023/10/08 01:54:49;;;;;;;9.30;4.50;;;14.20;99.90;;;;;;6214890;23;20233;-83
2023/10/08 01:57:16;;;;;;;5.30;4.32;;;14.20;99.90;;;;;;6240691;22;20201;-83
2023/10/08 01:59:44;;;;;;;8.35;4.70;;;14.20;99.90;;;;;;6215548;23;20166;-83
2023/10/08 02:02:10;;;;;;;9.73;5.07;;;14.20;99.90;;;;;;6240324;23;20244;-83
2023/10/08 02:04:35;;;;;;;10.15;5.18;;;14.20;99.90;;;;;;6239860;23;20185;-83
2023/10/08 02:07:07;;;;;;;6.20;4.57;;;14.20;99.90;;;;;;6239901;22;20228;-84
2023/10/08 02:09:34;;;;;;;7.72;4.68;;;14.10;99.90;;;;;;6239663;23;20182;-83
2023/10/08 02:12:00;;;;;;;10.77;4.75;;;14.10;99.90;;;;;;6239816;23;20500;-83
2023/10/08 02:14:26;;;;;;;8.40;4.65;;;14.10;99.90;;;;;;6239773;23;20154;-83
2023/10/08 02:16:56;;;;;;;6.47;5.20;;;14.00;99.90;;;;;;6215749;23;20624;-83
2023/10/08 02:19:26;;;;;;;8.88;4.65;;;14.00;99.90;;;;;;6240107;23;20245;-83
2023/10/08 02:21:54;;;;;;;9.23;4.75;;;14.00;99.90;;;;;;6239733;23;20162;-83
2023/10/08 02:24:21;;;;;;;7.75;5.13;;;14.00;99.90;;;;;;6216308;23;20212;-83
2023/10/08 02:26:47;;;;;;;7.85;4.68;;;13.90;99.90;;;;;;6239873;22;20204;-84
2023/10/08 02:29:13;;;;;;;10.48;4.55;;;13.90;99.90;;;;;;6240659;23;20182;-83
2023/10/08 02:31:40;;;;;;;6.70;4.57;;;13.90;99.90;;;;;;6239646;23;20566;-83
2023/10/08 02:34:09;;;;;;;6.93;4.15;;;13.90;99.90;;;;;;6240592;23;20165;-83
2023/10/08 02:36:40;;;;;;;8.48;5.30;;;13.90;99.90;;;;;;6239515;22;20174;-84
2023/10/08 02:39:13;;;;;;;15.60;5.05;;;13.90;99.90;;;;;;6240123;23;20165;-84
2023/10/08 02:41:45;;;;;;;13.05;5.50;;;13.80;99.90;;;;;;6240756;23;20486;-84
2023/10/08 02:44:13;;;;;;;11.98;5.47;;;13.80;99.90;;;;;;6214489;23;20158;-84
2023/10/08 02:46:48;;;;;;;10.65;5.28;;;13.90;99.90;;;;;;6239401;22;20178;-84
2023/10/08 02:49:22;;;;;;;8.60;4.93;;;13.90;99.90;;;;;;6240277;23;20178;-84
2023/10/08 02:51:50;;;;;;;6.63;4.63;;;14.10;99.90;;;;;;6215667;23;20141;-84
2023/10/08 02:54:25;;;;;;;10.05;5.05;;;14.10;99.90;;;;;;6215544;23;20151;-84
2023/10/08 02:56:58;;;;;;;8.38;4.88;;;14.10;99.90;;;;;;6215596;23;20197;-84
2023/10/08 02:59:28;;;;;;;10.10;5.28;;;14.10;99.90;;;;;;6241143;23;20166;-84
2023/10/08 03:01:57;;;;;;;12.02;4.93;;;14.10;99.90;;;;;;6214355;23;20237;-84
2023/10/08 03:04:22;;;;;;;12.25;5.30;;;14.10;99.90;;;;;;6239397;23;20601;-84
2023/10/08 03:06:49;;;;;;;7.45;4.82;;;14.00;99.90;;;;;;6239610;22;20189;-84
2023/10/08 03:09:31;;;;;;;11.93;5.03;;;13.90;99.90;;;;;;6239296;23;20186;-84
2023/10/08 03:11:58;;;;;;;8.20;4.40;;;13.90;99.90;;;;;;6239458;23;20154;-84
2023/10/08 03:14:26;;;;;;;7.40;5.25;;;13.90;99.90;;;;;;6214082;23;20189;-84
2023/10/08 03:16:54;;;;;;;8.07;4.50;;;13.90;99.90;;;;;;6239566;22;20635;-84
2023/10/08 03:19:22;;;;;;;11.15;4.60;;;13.80;99.90;;;;;;6239251;23;20216;-84
2023/10/08 03:21:50;;;;;;;8.38;5.28;;;13.80;99.90;;;;;;6215480;23;20241;-84
2023/10/08 03:24:29;;;;;;;5.88;4.82;;;13.80;99.90;;;;;;6215934;23;20577;-84
2023/10/08 03:27:05;;;;;;;8.68;4.75;;;13.80;99.90;;;;;;6239111;22;20201;-84
2023/10/08 03:29:32;;;;;;;16.52;5.93;;;13.80;99.90;;;;;;6215311;23;20605;-84
2023/10/08 03:31:57;;;;;;;12.23;5.55;;;13.70;99.90;;;;;;6239231;23;20165;-84
2023/10/08 03:34:33;;;;;;;11.07;5.18;;;13.70;99.90;;;;;;6239436;23;20240;-84
2023/10/08 03:37:05;;;;;;;10.35;5.38;;;13.70;99.90;;;;;;6239293;22;20174;-84
2023/10/08 03:42:40;;;;;;;9.25;5.43;;;13.70;99.90;;;;;;6184181;23;20154;-84
2023/10/08 03:45:12;;;;;;;10.13;4.85;;;13.80;99.90;;;;;;6241395;23;20158;-84
2023/10/08 03:47:38;;;;;;;11.43;5.18;;;13.80;99.90;;;;;;6241329;22;20178;-84
2023/10/08 03:50:11;;;;;;;10.80;5.07;;;13.80;99.90;;;;;;6242057;23;20182;-84
2023/10/08 03:52:38;;;;;;;8.80;5.72;;;13.80;99.90;;;;;;6240982;23;20671;-84
2023/10/08 03:55:20;;;;;;;7.72;5.05;;;13.90;99.90;;;;;;6217514;23;20180;-84
2023/10/08 03:57:48;;;;;;;8.20;5.07;;;13.80;99.90;;;;;;6241919;22;20177;-84
2023/10/08 04:00:28;;;;;;;9.15;5.75;;;13.80;99.90;;;;;;6241010;23;20505;-84
2023/10/08 04:02:55;;;;;;;8.13;5.03;;;13.80;99.90;;;;;;6215724;23;20216;-84
2023/10/08 04:05:32;;;;;;;12.07;5.38;;;13.80;99.90;;;;;;6241004;23;20165;-84
2023/10/08 04:13:08;;;;;;;8.55;4.80;;;13.80;99.90;;;;;;6227131;23;20500;-84
2023/10/08 04:15:40;;;;;;;13.10;4.97;;;13.80;99.90;;;;;;6241103;23;20157;-84
2023/10/08 04:18:10;;;;;;;8.23;4.88;;;13.90;99.90;;;;;;6241450;22;20214;-84
2023/10/08 04:20:39;;;;;;;7.35;5.32;;;13.90;99.90;;;;;;6240846;23;20165;-84
2023/10/08 04:23:20;;;;;;;11.85;5.13;;;14.00;99.90;;;;;;6241110;23;20216;-84
2023/10/08 04:25:53;;;;;;;8.18;5.10;;;14.10;99.90;;;;;;6240676;23;20246;-84
2023/10/08 04:28:20;;;;;;;7.65;5.18;;;14.20;99.90;;;;;;6215385;23;20189;-84
2023/10/08 04:30:50;;;;;;;6.55;5.00;;;14.20;99.90;;;;;;6217020;23;20170;-84
2023/10/08 04:33:19;;;;;;;8.40;5.10;;;14.20;99.90;;;;;;6215455;23;20204;-84
2023/10/08 04:35:48;;;;;;;11.75;5.05;;;14.20;99.90;;;;;;6215545;23;20158;-84
2023/10/08 04:38:21;;;;;;;9.25;5.03;;;14.20;99.90;;;;;;6215288;23;20179;-84
2023/10/08 04:40:53;;;;;;;6.50;4.85;;;14.30;99.90;;;;;;6216441;23;20600;-84
2023/10/08 04:43:27;;;;;;;9.25;5.57;;;14.30;99.90;;;;;;6215229;23;20585;-84
2023/10/08 04:45:53;;;;;;;10.02;5.32;;;14.40;99.90;;;;;;6191475;23;20161;-84
2023/10/08 04:48:20;;;;;;;7.80;5.25;;;14.40;99.90;;;;;;6215885;23;20168;-84
2023/10/08 04:50:58;;;;;;;7.65;5.20;;;14.40;99.90;;;;;;6215509;23;20205;-84
2023/10/08 04:53:36;;;;;;;10.30;5.60;;;14.40;99.90;;;;;;6216539;23;20213;-84
2023/10/08 04:56:13;;;;;;;8.52;5.18;;;14.40;99.90;;;;;;6216089;23;20154;-84
2023/10/08 04:58:40;;;;;;;8.88;5.32;;;14.40;99.90;;;;;;6215102;23;20146;-84
2023/10/08 05:01:18;;;;;;;8.30;5.03;;;14.40;99.90;;;;;;6215413;23;20162;-84
2023/10/08 05:04:23;;;;;;;8.50;5.25;;;14.60;99.90;;;;;;6191003;23;20204;-84
2023/10/08 05:14:38;;;;;;;7.13;5.28;;;14.60;99.90;;;;;;6226910;23;20142;-84
2023/10/08 05:17:10;;;;;;;9.55;5.60;;;14.60;99.90;;;;;;6216538;23;20189;-84
2023/10/08 05:22:17;;;;;;;10.02;5.45;;;14.50;99.90;;;;;;6216805;23;20158;-84
2023/10/08 05:25:05;;;;;;;10.93;5.68;;;14.50;99.90;;;;;;6216432;23;20176;-84
2023/10/08 05:27:56;;;;;;;8.73;5.30;;;14.40;99.90;;;;;;6216421;23;20196;-84
2023/10/08 05:30:54;;;;;;;6.85;5.13;;;14.40;99.90;;;;;;6214743;23;20262;-84
2023/10/08 05:33:44;;;;;;;11.90;5.20;;;14.40;99.90;;;;;;6214860;23;20177;-84
2023/10/08 05:36:18;;;;;;;6.80;4.85;;;14.40;99.90;;;;;;6214765;23;20182;-84
2023/10/08 05:39:00;;;;;;;7.80;5.25;;;14.40;99.90;;;;;;6214766;23;20639;-84
2023/10/08 05:41:39;;;;;;;7.63;5.15;;;14.40;99.90;;;;;;6215864;23;20150;-84
2023/10/08 05:44:14;;;;;;;9.48;5.35;;;14.50;99.90;;;;;;6215476;23;20150;-84
2023/10/08 05:46:49;;;;;;;9.05;5.50;;;14.50;99.90;;;;;;6215924;23;20173;-84
2023/10/08 06:13:15;;;;;;;8.52;5.93;;;14.50;99.90;;;;;;6216665;23;20145;-84
2023/10/08 06:15:51;;;;;;;10.13;5.45;;;14.50;99.90;;;;;;6214412;23;20157;-84
2023/10/08 06:18:25;;;;;;;11.63;5.55;;;14.50;99.90;;;;;;6216705;23;20130;-84
2023/10/08 06:20:54;;;;;;;8.98;5.72;;;14.50;99.90;;;;;;6214910;23;20152;-84
2023/10/08 06:23:23;;;;;;;8.10;5.20;;;14.50;99.90;;;;;;6215528;23;20601;-84
2023/10/08 06:25:56;;;;;;;8.38;5.93;;;14.50;99.90;;;;;;6215717;23;20169;-84
2023/10/08 06:28:25;;;;;;;12.15;5.97;;;14.60;99.90;;;;;;6214786;23;20619;-84
2023/10/08 06:30:56;;;;;;;12.40;6.32;;;14.60;99.90;;;;;;6190188;23;20518;-84
2023/10/08 06:33:25;;;;;;;11.77;6.15;;;14.70;99.90;;;;;;6216303;23;20234;-84
2023/10/08 06:36:01;;;;;;;9.60;5.50;;;14.70;99.90;;;;;;6214157;23;20154;-84
2023/10/08 06:38:30;;;;;;;8.88;5.55;;;14.80;99.90;;;;;;6214909;23;20204;-84
2023/10/08 06:41:10;;;;;;;9.65;5.80;;;14.90;99.90;;;;;;6215509;23;20165;-84
2023/10/08 06:43:37;;;;;;;11.40;5.90;;;15.00;99.90;;;;;;6215718;23;20154;-84
2023/10/08 06:46:07;;;;;;;13.55;6.10;;;15.10;99.90;;;;;;6214083;23;20154;-84
2023/10/08 06:48:34;;;;;;;12.70;6.32;;;15.10;99.90;;;;;;6215767;23;20158;-84
2023/10/08 06:51:13;;;;;;;8.95;6.20;;;15.20;99.90;;;;;;6214311;23;20161;-85
2023/10/08 06:53:44;;;;;;;10.45;6.65;;;15.20;99.90;;;;;;6214098;23;20143;-85
2023/10/08 06:56:12;;;;;;;14.32;6.18;;;15.20;99.90;;;;;;6215126;23;20182;-85
2023/10/08 06:58:48;;;;;;;94.63;32.30;;;15.30;99.90;;;;;;6215808;23;20613;-85
2023/10/08 07:01:21;;;;;;;23.88;9.63;;;15.30;99.90;;;;;;6215662;23;20149;-85
2023/10/08 07:04:03;;;;;;;22.35;9.02;;;15.30;99.90;;;;;;6214807;23;20146;-85
2023/10/08 07:06:54;;;;;;;32.03;12.15;;;15.40;99.90;;;;;;6189260;23;20273;-84
2023/10/08 07:09:22;;;;;;;17.77;7.85;;;15.40;99.90;;;;;;6214537;23;20201;-85
2023/10/08 07:11:54;;;;;;;26.77;10.80;;;15.50;99.90;;;;;;6215048;23;20250;-85
2023/10/08 07:14:27;;;;;;;15.40;8.02;;;15.50;99.90;;;;;;6218390;23;20146;-84
2023/10/08 07:16:59;;;;;;;13.10;7.45;;;15.60;99.90;;;;;;6217096;23;20174;-85
2023/10/08 07:19:36;;;;;;;20.20;7.18;;;15.80;99.90;;;;;;6217110;23;20157;-83
2023/10/08 07:22:21;;;;;;;14.93;7.30;;;15.90;99.90;;;;;;6217988;23;20154;-83
2023/10/08 07:24:50;;;;;;;17.35;7.53;;;16.00;99.90;;;;;;6216903;23;20178;-83
2023/10/08 07:27:21;;;;;;;10.52;6.90;;;16.10;99.90;;;;;;6233509;22;20248;-82
2023/10/08 07:29:48;;;;;;;13.55;6.40;;;16.10;99.90;;;;;;6242553;23;20174;-82
2023/10/08 07:32:18;;;;;;;11.05;6.63;;;16.20;99.90;;;;;;6243253;23;20147;-82
2023/10/08 07:34:44;;;;;;;12.38;6.60;;;16.20;99.90;;;;;;6242716;23;20577;-82
2023/10/08 07:37:11;;;;;;;12.23;6.68;;;16.30;99.90;;;;;;6216877;23;20273;-82
2023/10/08 07:39:46;;;;;;;16.63;9.35;;;16.30;99.90;;;;;;6242165;23;20158;-82
2023/10/08 07:42:12;;;;;;;11.95;7.80;;;16.30;99.90;;;;;;6242440;23;20142;-82
2023/10/08 07:44:38;;;;;;;13.30;7.50;;;16.30;99.90;;;;;;6242182;23;20159;-82
2023/10/08 07:47:10;;;;;;;11.18;6.78;;;16.30;99.90;;;;;;6242720;22;20188;-82
2023/10/08 07:49:36;;;;;;;14.07;7.18;;;16.30;99.90;;;;;;6242696;23;20221;-84
2023/10/08 07:52:05;;;;;;;14.70;7.18;;;16.40;99.90;;;;;;6241122;23;20158;-84
2023/10/08 07:54:34;;;;;;;14.95;7.85;;;16.40;99.90;;;;;;6242431;23;20162;-85
2023/10/08 07:57:10;;;;;;;12.70;6.95;;;16.40;99.90;;;;;;6241552;22;20178;-85
2023/10/08 07:59:46;;;;;;;11.18;6.13;;;16.50;99.90;;;;;;6242206;23;20150;-85
2023/10/08 08:02:12;;;;;;;9.23;5.90;;;16.40;99.90;;;;;;6242281;23;20233;-85
2023/10/08 08:04:46;;;;;;;10.68;5.95;;;16.40;99.90;;;;;;6241131;23;20557;-85
2023/10/08 08:07:21;;;;;;;11.13;6.75;;;16.50;99.90;;;;;;6215660;23;20193;-85
2023/10/08 08:09:51;;;;;;;11.15;5.95;;;16.50;99.90;;;;;;6242476;23;20596;-85
2023/10/08 08:12:19;;;;;;;14.05;6.65;;;16.60;99.90;;;;;;6241309;23;20245;-85
2023/10/08 08:14:45;;;;;;;8.73;5.82;;;16.70;99.90;;;;;;6217503;23;20589;-85
2023/10/08 08:17:13;;;;;;;8.75;6.22;;;16.80;99.90;;;;;;6241886;22;20289;-85
2023/10/08 08:19:50;;;;;;;16.17;6.00;;;16.80;99.90;;;;;;6240880;23;20163;-85
2023/10/08 08:22:23;;;;;;;9.77;6.35;;;16.90;99.90;;;;;;6241928;23;20146;-85
2023/10/08 08:24:53;;;;;;;16.73;7.07;;;17.00;99.90;;;;;;6240497;23;20150;-85
2023/10/08 08:27:26;;;;;;;16.42;6.78;;;17.00;99.90;;;;;;6242154;22;20194;-85
2023/10/08 08:29:55;;;;;;;12.55;7.63;;;17.00;99.90;;;;;;6242008;23;20174;-85
2023/10/08 08:32:23;;;;;;;10.75;7.75;;;16.90;99.90;;;;;;6240855;23;20569;-85
2023/10/08 08:34:52;;;;;;;16.90;8.00;;;16.90;99.90;;;;;;6242002;23;20196;-85
2023/10/08 08:37:18;;;;;;;10.93;7.15;;;17.00;99.90;;;;;;6241097;22;20174;-85
2023/10/08 08:39:45;;;;;;;12.30;7.07;;;17.00;99.90;;;;;;6241211;23;20189;-85
2023/10/08 08:42:11;;;;;;;14.35;7.80;;;17.10;99.90;;;;;;6240836;23;20165;-85
2023/10/08 08:44:45;;;;;;;17.55;10.15;;;17.10;99.90;;;;;;6240806;23;20162;-85
2023/10/08 08:47:17;;;;;;;12.75;7.15;;;17.10;99.90;;;;;;6241908;22;20185;-85
2023/10/08 08:49:46;;;;;;;13.23;6.72;;;17.10;99.90;;;;;;6240684;23;20719;-85
2023/10/08 08:52:13;;;;;;;14.32;6.40;;;17.10;99.90;;;;;;6240209;23;20237;-85
2023/10/08 08:54:39;;;;;;;13.65;7.32;;;17.00;99.90;;;;;;6241342;23;20172;-85
2023/10/08 08:57:16;;;;;;;21.05;14.48;;;17.00;99.90;;;;;;6240680;22;20224;-85
2023/10/08 08:59:53;;;;;;;41.03;29.45;;;17.00;99.90;;;;;;6241354;23;20573;-85
2023/10/08 09:02:18;;;;;;;25.52;21.67;;;17.10;99.90;;;;;;6240872;23;20146;-85
2023/10/08 09:04:45;;;;;;;22.77;17.55;;;17.10;99.90;;;;;;6241577;23;20162;-85
2023/10/08 09:07:12;;;;;;;14.98;10.88;;;17.00;99.90;;;;;;6216330;23;20192;-85
2023/10/08 09:09:39;;;;;;;13.95;7.22;;;17.00;99.90;;;;;;6215197;23;20265;-85
2023/10/08 09:12:07;;;;;;;11.45;7.10;;;17.00;99.90;;;;;;6240888;23;20154;-85
2023/10/08 09:14:33;;;;;;;12.93;6.88;;;16.90;99.90;;;;;;6241545;23;20185;-85
2023/10/08 09:17:00;;;;;;;15.63;7.57;;;16.90;99.90;;;;;;6240665;22;20624;-85
2023/10/08 09:19:26;;;;;;;13.15;6.80;;;16.90;99.90;;;;;;6241756;23;20158;-85
2023/10/08 09:22:05;;;;;;;9.00;6.60;;;16.90;99.90;;;;;;6240777;23;20155;-86
2023/10/08 09:24:33;;;;;;;14.60;7.22;;;16.90;99.90;;;;;;6216866;23;20142;-85
2023/10/08 09:27:00;;;;;;;13.98;7.03;;;16.90;99.90;;;;;;6240611;22;20197;-85
2023/10/08 09:29:26;;;;;;;10.10;5.68;;;16.80;99.90;;;;;;6240458;23;20232;-85
2023/10/08 09:31:59;;;;;;;11.13;5.18;;;16.60;99.90;;;;;;6241323;23;20155;-85
2023/10/08 09:34:30;;;;;;;12.57;5.65;;;16.50;99.90;;;;;;6216161;23;20154;-85
2023/10/08 09:36:59;;;;;;;8.18;5.10;;;16.60;99.90;;;;;;6216665;23;20171;-85
2023/10/08 09:39:28;;;;;;;9.18;4.82;;;16.50;99.90;;;;;;6240048;23;20162;-85
2023/10/08 09:41:55;;;;;;;8.18;4.80;;;16.50;99.90;;;;;;6240086;23;20611;-85
2023/10/08 09:44:24;;;;;;;6.25;4.45;;;16.40;99.90;;;;;;6240191;23;20241;-85
2023/10/08 09:47:12;;;;;;;10.93;4.03;;;16.30;99.90;;;;;;6241121;22;20188;-85
2023/10/08 09:49:46;;;;;;;8.00;4.32;;;16.20;99.90;;;;;;6215586;23;20189;-85
2023/10/08 09:52:15;;;;;;;9.55;4.45;;;16.20;99.90;;;;;;6215763;23;20149;-83
2023/10/08 09:54:56;;;;;;;16.38;10.75;;;16.20;99.90;;;;;;6241068;23;20146;-85
2023/10/08 09:57:26;;;;;;;7.07;4.40;;;16.10;99.90;;;;;;6242788;22;20178;-84
2023/10/08 09:59:53;;;;;;;7.93;4.03;;;16.10;99.90;;;;;;6215940;23;20244;-84
2023/10/08 10:02:22;;;;;;;5.75;3.40;;;16.10;99.90;;;;;;6216027;23;20150;-84
2023/10/08 10:04:52;;;;;;;7.57;3.63;;;16.00;99.90;;;;;;6239790;23;20158;-84
2023/10/08 10:07:19;;;;;;;5.80;3.75;;;15.90;99.90;;;;;;6214790;23;20186;-84
2023/10/08 10:09:46;;;;;;;4.13;3.72;;;16.00;99.90;;;;;;6239576;23;20723;-84
2023/10/08 10:12:17;;;;;;;5.10;3.30;;;15.90;99.90;;;;;;6214405;23;20229;-84
2023/10/08 10:14:45;;;;;;;4.78;2.53;;;15.90;99.90;;;;;;6241006;23;20172;-84
2023/10/08 10:17:22;;;;;;;7.75;4.28;;;15.80;99.90;;;;;;6239764;22;20185;-84
2023/10/08 10:20:00;;;;;;;4.15;2.85;;;15.70;99.90;;;;;;6216114;23;20158;-84
2023/10/08 10:22:32;;;;;;;5.53;2.90;;;15.60;99.90;;;;;;6216142;23;20165;-83
2023/10/08 10:25:03;;;;;;;4.60;2.30;;;15.60;99.90;;;;;;6240567;23;20173;-84
2023/10/08 10:27:29;;;;;;;2.28;1.80;;;15.50;99.90;;;;;;6239529;22;20197;-84
2023/10/08 10:30:08;;;;;;;2.30;2.00;;;15.50;99.90;;;;;;6239760;23;20174;-84
2023/10/08 10:32:37;;;;;;;1.65;1.55;;;15.40;99.90;;;;;;6239804;23;20193;-84
2023/10/08 10:35:03;;;;;;;4.43;2.03;;;15.50;99.90;;;;;;6239359;23;20584;-85
2023/10/08 10:37:40;;;;;;;7.30;2.53;;;15.50;99.90;;;;;;6240152;22;20253;-85
2023/10/08 10:40:12;;;;;;;7.20;3.30;;;15.70;99.90;;;;;;6239645;23;20157;-85
2023/10/08 10:42:42;;;;;;;1.50;1.50;;;15.80;99.90;;;;;;6239621;23;20229;-85
2023/10/08 10:46:19;;;;;;;2.30;1.60;;;15.70;99.90;;;;;;6241046;23;20515;-85
2023/10/08 10:48:12;;;;;;;6.03;2.55;;;15.70;99.90;;;;;;6209825;23;20517;-85
2023/10/08 10:50:48;;;;;;;1.67;1.58;;;15.90;99.90;;;;;;6240877;23;20197;-85
2023/10/08 10:53:17;;;;;;;1.60;1.50;;;16.10;99.90;;;;;;6241887;23;20178;-83
2023/10/08 10:55:59;;;;;;;2.00;1.90;;;16.30;99.90;;;;;;6217413;23;20233;-83
2023/10/08 10:58:27;;;;;;;2.35;2.15;;;16.20;99.90;;;;;;6241031;23;20217;-83
2023/10/08 11:00:57;;;;;;;2.67;1.55;;;16.10;99.90;;;;;;6241427;23;20166;-82
2023/10/08 11:03:23;;;;;;;1.77;1.27;;;16.00;99.90;;;;;;6241832;23;20150;-82
2023/10/08 11:05:59;;;;;;;6.80;3.70;;;16.00;99.90;;;;;;6241223;23;20158;-81
2023/10/08 11:08:26;;;;;;;3.35;3.05;;;16.10;99.90;;;;;;6218142;23;20150;-81
2023/10/08 11:10:58;;;;;;;2.25;2.05;;;16.10;99.90;;;;;;6241396;23;20182;-83
2023/10/08 11:13:37;;;;;;;1.30;1.30;;;16.10;99.90;;;;;;6218481;23;20166;-81
2023/10/08 11:16:04;;;;;;;3.22;1.40;;;16.00;99.90;;;;;;6241562;23;20173;-82
2023/10/08 11:18:29;;;;;;;1.10;1.00;;;16.10;99.90;;;;;;6242589;23;20154;-82
2023/10/08 11:21:15;;;;;;;1.48;1.00;;;16.20;99.90;;;;;;6241234;23;20154;-82
2023/10/08 11:23:59;;;;;;;0.98;0.98;;;16.30;99.90;;;;;;6241585;23;20260;-82
2023/10/08 11:26:32;;;;;;;1.17;0.90;;;16.30;99.90;;;;;;6241346;22;20204;-82
2023/10/08 11:29:00;;;;;;;1.83;1.00;;;16.60;99.90;;;;;;6241514;23;20147;-82
2023/10/08 11:31:28;;;;;;;1.00;1.00;;;16.70;99.90;;;;;;6242026;23;20157;-81
2023/10/08 11:33:59;;;;;;;0.90;0.90;;;16.60;99.90;;;;;;6242006;23;20150;-81
2023/10/08 11:36:28;;;;;;;0.98;0.88;;;16.30;99.90;;;;;;6242144;22;20178;-81
2023/10/08 11:39:08;;;;;;;1.17;0.90;;;16.10;99.90;;;;;;6241754;23;20233;-81
2023/10/08 11:41:55;;;;;;;0.80;0.80;;;16.00;99.90;;;;;;6241242;23;20184;-82
2023/10/08 11:44:23;;;;;;;0.70;0.70;;;15.90;99.90;;;;;;6218792;23;20165;-82
2023/10/08 11:46:51;;;;;;;0.82;0.60;;;15.90;99.90;;;;;;6241276;22;20174;-82
2023/10/08 11:49:18;;;;;;;3.92;1.10;;;15.90;99.90;;;;;;6242103;23;20257;-81
2023/10/08 11:51:45;;;;;;;1.90;0.77;;;16.00;99.90;;;;;;6241897;23;20162;-82
2023/10/08 11:54:11;;;;;;;1.45;0.65;;;16.10;99.90;;;;;;6241322;23;20149;-82
2023/10/08 11:56:38;;;;;;;1.55;0.80;;;16.20;99.90;;;;;;6242550;22;20174;-82
2023/10/08 11:59:11;;;;;;;0.82;0.60;;;16.40;99.90;;;;;;6242396;23;20189;-83
2023/10/08 12:01:42;;;;;;;1.02;0.70;;;16.50;99.90;;;;;;6246174;23;20513;-83
2023/10/08 12:04:18;;;;;;;1.00;0.70;;;16.40;99.90;;;;;;6246127;23;20153;-83
2023/10/08 12:06:46;;;;;;;0.70;0.70;;;16.40;99.90;;;;;;6248642;22;20261;-83
2023/10/08 12:09:15;;;;;;;0.63;0.63;;;16.40;99.90;;;;;;6222225;23;20207;-84
2023/10/08 12:11:42;;;;;;;0.85;0.82;;;16.40;99.90;;;;;;6242738;23;20195;-84
2023/10/08 12:14:08;;;;;;;0.85;0.85;;;16.20;99.90;;;;;;6244817;23;20537;-84
2023/10/08 12:16:39;;;;;;;0.70;0.70;;;16.30;99.90;;;;;;6248167;22;20242;-84
2023/10/08 12:19:15;;;;;;;1.45;0.88;;;16.20;99.90;;;;;;6247075;23;20146;-83
2023/10/08 12:21:41;;;;;;;2.75;1.27;;;16.20;99.90;;;;;;6222106;23;20130;-83
2023/10/08 12:24:12;;;;;;;3.28;1.33;;;16.10;99.90;;;;;;6247532;23;20154;-82
2023/10/08 12:26:45;;;;;;;1.00;1.00;;;16.00;99.90;;;;;;6244754;22;20194;-83
2023/10/08 12:29:14;;;;;;;2.80;1.70;;;16.00;99.90;;;;;;6242011;23;20166;-83
2023/10/08 12:31:40;;;;;;;1.80;1.70;;;15.80;99.90;;;;;;6242536;23;20623;-83
2023/10/08 12:34:05;;;;;;;1.30;1.30;;;15.80;99.90;;;;;;6243217;23;20154;-82
2023/10/08 12:36:36;;;;;;;1.10;1.00;;;15.80;99.90;;;;;;6244986;22;20174;-82
2023/10/08 12:39:09;;;;;;;2.33;1.08;;;15.90;99.90;;;;;;6243821;23;20488;-82
2023/10/08 12:41:38;;;;;;;1.35;0.65;;;16.00;99.90;;;;;;6243533;23;20169;-82
2023/10/08 12:44:07;;;;;;;1.38;1.20;;;15.80;99.90;;;;;;6243719;23;20158;-82
2023/10/08 12:46:33;;;;;;;2.15;0.90;;;15.70;99.90;;;;;;6243392;22;20196;-83
2023/10/08 12:49:01;;;;;;;0.68;0.60;;;16.00;99.90;;;;;;6243686;23;20230;-82
2023/10/08 12:51:31;;;;;;;0.80;0.50;;;16.10;99.90;;;;;;6244740;23;20162;-82
2023/10/08 12:54:06;;;;;;;1.42;0.77;;;16.20;99.90;;;;;;6244621;23;20615;-82
2023/10/08 12:56:36;;;;;;;1.77;0.60;;;16.30;99.90;;;;;;6244028;22;20174;-81
2023/10/08 12:59:20;;;;;;;1.10;0.50;;;16.40;99.90;;;;;;6220903;23;20189;-81
2023/10/08 13:01:51;;;;;;;0.40;0.40;;;16.60;99.90;;;;;;6220083;23;20209;-84
2023/10/08 13:04:27;;;;;;;0.85;0.85;;;16.60;99.90;;;;;;6241042;23;20146;-84
2023/10/08 13:06:57;;;;;;;0.63;0.63;;;16.70;99.90;;;;;;6240810;22;20181;-84
2023/10/08 13:09:25;;;;;;;1.40;1.30;;;16.70;99.90;;;;;;6216336;23;20174;-84
2023/10/08 13:11:51;;;;;;;0.70;0.70;;;16.80;99.90;;;;;;6241141;23;20155;-85
2023/10/08 13:14:17;;;;;;;1.23;1.15;;;16.90;99.90;;;;;;6241309;23;20226;-86
2023/10/08 13:16:45;;;;;;;2.13;1.80;;;17.10;99.90;;;;;;6240623;22;20178;-86
2023/10/08 13:19:10;;;;;;;2.47;0.98;;;17.00;99.90;;;;;;6240166;23;20146;-86
2023/10/08 13:21:37;;;;;;;0.88;0.88;;;16.80;99.90;;;;;;6240147;23;20201;-86
2023/10/08 13:24:05;;;;;;;1.05;0.70;;;16.70;99.90;;;;;;6240286;23;20220;-84
2023/10/08 13:26:31;;;;;;;6.30;5.43;;;16.60;99.90;;;;;;6240039;22;20198;-85
2023/10/08 13:29:00;;;;;;;4.15;3.70;;;16.30;99.90;;;;;;6241509;23;20158;-84
2023/10/08 13:31:37;;;;;;;3.22;2.90;;;16.30;99.90;;;;;;6240805;23;20496;-83
2023/10/08 13:34:08;;;;;;;8.52;7.53;;;16.50;99.90;;;;;;6240472;23;20166;-84
2023/10/08 13:36:37;;;;;;;2.33;2.13;;;16.50;99.90;;;;;;6241597;22;20173;-83
2023/10/08 13:39:08;;;;;;;5.45;3.58;;;16.40;99.90;;;;;;6241178;23;20169;-83
2023/10/08 13:41:35;;;;;;;3.92;3.47;;;16.40;99.90;;;;;;6240902;23;20185;-83
2023/10/08 13:44:05;;;;;;;2.47;1.80;;;16.50;99.90;;;;;;6241572;23;20158;-83
2023/10/08 13:46:36;;;;;;;1.58;1.48;;;16.40;99.90;;;;;;6242265;22;20285;-83
2023/10/08 13:49:06;;;;;;;2.95;2.65;;;16.40;99.90;;;;;;6192350;23;20163;-83
2023/10/08 13:51:55;;;;;;;1.67;0.75;;;16.40;99.90;;;;;;6240374;23;20143;-83
2023/10/08 13:54:21;;;;;;;1.13;1.00;;;16.30;99.90;;;;;;6240210;23;20551;-83
2023/10/08 13:56:50;;;;;;;0.60;0.60;;;16.40;99.90;;;;;;6241380;22;20174;-83
2023/10/08 13:59:19;;;;;;;13.85;12.60;;;16.30;99.90;;;;;;6215653;23;20620;-83
2023/10/08 14:01:46;;;;;;;10.10;9.10;;;16.30;99.90;;;;;;6240302;23;20153;-83
2023/10/08 14:04:26;;;;;;;3.90;3.60;;;16.10;99.90;;;;;;6240833;23;20240;-83
2023/10/08 14:06:51;;;;;;;6.40;5.88;;;16.00;99.90;;;;;;6241343;22;20239;-82